Northfield, Texas
Current Conditions -  °F | °C
As of 4:53 AM on Saturday 25 Oct 2014 (Local Time) from KCDS Reporting Station
Clear Clear  
Wind Chill: 60°   Ceiling: Unl
Heat Index: 60°   Visibility: 10mi
Dew Point: 53°   Wind: 8mph
Humidity: 78%   Direction: 260°W
Pressure: 30.1"   Gusts: NA
Location:  34.4383°N, 100.197°W
Report Text: KCDS 250953Z AUTO 26007KT 10SM CLR 16/12 A3010 RMK AO2 SLP167 T01560117
Loading
Personal Weather Stations






























Interactive Weather Map
Tropical Storm Tracking
New forecast layout! Learn more

10-Day Weather Forecast

Advertisements
Track Severe Weather on mobile